sensor_id;sensor_type;location;lat;lon;timestamp;temperature;humidity
13848;DHT22;6994;49.752;6.094;2022-08-21T00:01:54;14.90;99.90
13848;DHT22;6994;49.752;6.094;2022-08-21T00:04:21;15.00;99.90
13848;DHT22;6994;49.752;6.094;2022-08-21T00:06:49;15.00;99.90
13848;DHT22;6994;49.752;6.094;2022-08-21T00:09:15;14.90;99.90
13848;DHT22;6994;49.752;6.094;2022-08-21T00:11:43;14.80;99.90
13848;DHT22;6994;49.752;6.094;2022-08-21T00:14:10;14.70;99.90
13848;DHT22;6994;49.752;6.094;2022-08-21T00:16:38;14.60;99.90
13848;DHT22;6994;49.752;6.094;2022-08-21T00:19:05;14.60;99.90
13848;DHT22;6994;49.752;6.094;2022-08-21T00:21:34;14.40;99.90
13848;DHT22;6994;49.752;6.094;2022-08-21T00:24:00;14.40;99.90
13848;DHT22;6994;49.752;6.094;2022-08-21T00:26:27;14.30;99.90
13848;DHT22;6994;49.752;6.094;2022-08-21T00:28:55;14.50;99.90
13848;DHT22;6994;49.752;6.094;2022-08-21T00:31:22;14.40;99.90
13848;DHT22;6994;49.752;6.094;2022-08-21T00:33:49;14.30;99.90
13848;DHT22;6994;49.752;6.094;2022-08-21T00:36:16;14.20;99.90
13848;DHT22;6994;49.752;6.094;2022-08-21T00:38:43;14.10;99.90
13848;DHT22;6994;49.752;6.094;2022-08-21T00:41:11;14.00;99.90
13848;DHT22;6994;49.752;6.094;2022-08-21T00:43:38;13.90;99.90
13848;DHT22;6994;49.752;6.094;2022-08-21T00:46:06;13.80;99.90
13848;DHT22;6994;49.752;6.094;2022-08-21T00:48:33;13.80;99.90
13848;DHT22;6994;49.752;6.094;2022-08-21T00:51:05;13.70;99.90
13848;DHT22;6994;49.752;6.094;2022-08-21T00:53:30;13.70;99.90
13848;DHT22;6994;49.752;6.094;2022-08-21T00:55:57;13.60;99.90
13848;DHT22;6994;49.752;6.094;2022-08-21T00:58:26;13.70;99.90
13848;DHT22;6994;49.752;6.094;2022-08-21T01:00:52;13.70;99.90
13848;DHT22;6994;49.752;6.094;2022-08-21T01:03:22;13.70;99.90
13848;DHT22;6994;49.752;6.094;2022-08-21T01:05:47;13.60;99.90
13848;DHT22;6994;49.752;6.094;2022-08-21T01:08:15;13.60;99.90
13848;DHT22;6994;49.752;6.094;2022-08-21T01:10:41;13.50;99.90
13848;DHT22;6994;49.752;6.094;2022-08-21T01:13:09;13.40;99.90
13848;DHT22;6994;49.752;6.094;2022-08-21T01:15:37;13.40;99.90
13848;DHT22;6994;49.752;6.094;2022-08-21T01:18:06;13.30;99.90
13848;DHT22;6994;49.752;6.094;2022-08-21T01:20:33;13.30;99.90
13848;DHT22;6994;49.752;6.094;2022-08-21T01:23:00;13.20;99.90
13848;DHT22;6994;49.752;6.094;2022-08-21T01:25:27;13.20;99.90
13848;DHT22;6994;49.752;6.094;2022-08-21T01:27:54;13.20;99.90
13848;DHT22;6994;49.752;6.094;2022-08-21T01:30:25;13.20;99.90
13848;DHT22;6994;49.752;6.094;2022-08-21T01:32:51;13.20;99.90
13848;DHT22;6994;49.752;6.094;2022-08-21T01:35:19;13.20;99.90
13848;DHT22;6994;49.752;6.094;2022-08-21T01:37:46;13.10;99.90
13848;DHT22;6994;49.752;6.094;2022-08-21T01:40:14;13.10;99.90
13848;DHT22;6994;49.752;6.094;2022-08-21T01:42:40;13.10;99.90
13848;DHT22;6994;49.752;6.094;2022-08-21T01:45:08;13.10;99.90
13848;DHT22;6994;49.752;6.094;2022-08-21T01:47:35;13.00;99.90
13848;DHT22;6994;49.752;6.094;2022-08-21T01:50:03;13.00;99.90
13848;DHT22;6994;49.752;6.094;2022-08-21T01:52:29;13.00;99.90
13848;DHT22;6994;49.752;6.094;2022-08-21T01:54:56;13.20;99.90
13848;DHT22;6994;49.752;6.094;2022-08-21T01:57:23;13.20;99.90
13848;DHT22;6994;49.752;6.094;2022-08-21T01:59:50;13.10;99.90
13848;DHT22;6994;49.752;6.094;2022-08-21T02:02:18;13.00;99.90
13848;DHT22;6994;49.752;6.094;2022-08-21T02:04:46;12.90;99.90
13848;DHT22;6994;49.752;6.094;2022-08-21T02:07:14;12.80;99.90
13848;DHT22;6994;49.752;6.094;2022-08-21T02:09:42;12.80;99.90
13848;DHT22;6994;49.752;6.094;2022-08-21T02:12:10;12.80;99.90
13848;DHT22;6994;49.752;6.094;2022-08-21T02:14:37;12.70;99.90
13848;DHT22;6994;49.752;6.094;2022-08-21T02:17:04;12.70;99.90
13848;DHT22;6994;49.752;6.094;2022-08-21T02:19:32;12.80;99.90
13848;DHT22;6994;49.752;6.094;2022-08-21T02:21:59;12.80;99.90
13848;DHT22;6994;49.752;6.094;2022-08-21T02:24:26;12.80;99.90
13848;DHT22;6994;49.752;6.094;2022-08-21T02:26:54;12.80;99.90
13848;DHT22;6994;49.752;6.094;2022-08-21T02:29:21;12.80;99.90
13848;DHT22;6994;49.752;6.094;2022-08-21T02:31:48;12.70;99.90
13848;DHT22;6994;49.752;6.094;2022-08-21T02:34:15;12.70;99.90
13848;DHT22;6994;49.752;6.094;2022-08-21T02:36:42;12.60;99.90
13848;DHT22;6994;49.752;6.094;2022-08-21T02:39:10;12.60;99.90
13848;DHT22;6994;49.752;6.094;2022-08-21T02:41:37;12.60;99.90
13848;DHT22;6994;49.752;6.094;2022-08-21T02:44:05;12.60;99.90
13848;DHT22;6994;49.752;6.094;2022-08-21T02:46:33;12.50;99.90
13848;DHT22;6994;49.752;6.094;2022-08-21T02:49:00;12.50;99.90
13848;DHT22;6994;49.752;6.094;2022-08-21T02:51:27;12.50;99.90
13848;DHT22;6994;49.752;6.094;2022-08-21T02:53:54;12.50;99.90
13848;DHT22;6994;49.752;6.094;2022-08-21T02:56:22;12.40;99.90
13848;DHT22;6994;49.752;6.094;2022-08-21T02:58:50;12.40;99.90
13848;DHT22;6994;49.752;6.094;2022-08-21T03:01:16;12.40;99.90
13848;DHT22;6994;49.752;6.094;2022-08-21T03:03:44;12.40;99.90
13848;DHT22;6994;49.752;6.094;2022-08-21T03:06:12;12.40;99.90
13848;DHT22;6994;49.752;6.094;2022-08-21T03:08:38;12.40;99.90
13848;DHT22;6994;49.752;6.094;2022-08-21T03:11:05;12.50;99.90
13848;DHT22;6994;49.752;6.094;2022-08-21T03:13:32;12.60;99.90
13848;DHT22;6994;49.752;6.094;2022-08-21T03:16:00;12.50;99.90
13848;DHT22;6994;49.752;6.094;2022-08-21T03:18:27;12.50;99.90
13848;DHT22;6994;49.752;6.094;2022-08-21T03:20:54;12.50;99.90
13848;DHT22;6994;49.752;6.094;2022-08-21T03:23:22;12.60;99.90
13848;DHT22;6994;49.752;6.094;2022-08-21T03:25:49;12.80;99.90
13848;DHT22;6994;49.752;6.094;2022-08-21T03:28:18;12.70;99.90
13848;DHT22;6994;49.752;6.094;2022-08-21T03:30:44;12.60;99.90
13848;DHT22;6994;49.752;6.094;2022-08-21T03:33:10;12.50;99.90
13848;DHT22;6994;49.752;6.094;2022-08-21T03:35:38;12.40;99.90
13848;DHT22;6994;49.752;6.094;2022-08-21T03:38:05;12.30;99.90
13848;DHT22;6994;49.752;6.094;2022-08-21T03:40:32;12.20;99.90
13848;DHT22;6994;49.752;6.094;2022-08-21T03:42:59;12.30;99.90
13848;DHT22;6994;49.752;6.094;2022-08-21T03:45:27;12.50;99.90
13848;DHT22;6994;49.752;6.094;2022-08-21T03:47:58;12.40;99.90
13848;DHT22;6994;49.752;6.094;2022-08-21T03:50:26;12.30;99.90
13848;DHT22;6994;49.752;6.094;2022-08-21T03:52:53;12.20;99.90
13848;DHT22;6994;49.752;6.094;2022-08-21T03:55:21;12.10;99.90
13848;DHT22;6994;49.752;6.094;2022-08-21T03:57:49;12.10;99.90
13848;DHT22;6994;49.752;6.094;2022-08-21T04:00:16;12.00;99.90
13848;DHT22;6994;49.752;6.094;2022-08-21T04:02:43;12.00;99.90
13848;DHT22;6994;49.752;6.094;2022-08-21T04:05:12;11.90;99.90
13848;DHT22;6994;49.752;6.094;2022-08-21T04:07:38;12.10;99.90
13848;DHT22;6994;49.752;6.094;2022-08-21T04:10:05;12.10;99.90
13848;DHT22;6994;49.752;6.094;2022-08-21T04:12:32;12.00;99.90
13848;DHT22;6994;49.752;6.094;2022-08-21T04:14:59;11.90;99.90
13848;DHT22;6994;49.752;6.094;2022-08-21T04:17:27;11.80;99.90
13848;DHT22;6994;49.752;6.094;2022-08-21T04:19:54;11.80;99.90
13848;DHT22;6994;49.752;6.094;2022-08-21T04:22:22;11.70;99.90
13848;DHT22;6994;49.752;6.094;2022-08-21T04:24:49;11.70;99.90
13848;DHT22;6994;49.752;6.094;2022-08-21T04:27:16;11.60;99.90
13848;DHT22;6994;49.752;6.094;2022-08-21T04:29:43;11.60;99.90
13848;DHT22;6994;49.752;6.094;2022-08-21T04:32:11;11.80;99.90
13848;DHT22;6994;49.752;6.094;2022-08-21T04:34:38;11.90;99.90
13848;DHT22;6994;49.752;6.094;2022-08-21T04:37:05;11.90;99.90
13848;DHT22;6994;49.752;6.094;2022-08-21T04:39:32;11.80;99.90
13848;DHT22;6994;49.752;6.094;2022-08-21T04:41:59;11.80;99.90
13848;DHT22;6994;49.752;6.094;2022-08-21T04:44:27;11.70;99.90
13848;DHT22;6994;49.752;6.094;2022-08-21T04:46:54;11.70;99.90
13848;DHT22;6994;49.752;6.094;2022-08-21T04:49:21;11.70;99.90
13848;DHT22;6994;49.752;6.094;2022-08-21T04:51:51;11.70;99.90
13848;DHT22;6994;49.752;6.094;2022-08-21T04:54:20;11.70;99.90
13848;DHT22;6994;49.752;6.094;2022-08-21T04:56:55;11.60;99.90
13848;DHT22;6994;49.752;6.094;2022-08-21T04:59:20;11.60;99.90
13848;DHT22;6994;49.752;6.094;2022-08-21T05:01:47;11.50;99.90
13848;DHT22;6994;49.752;6.094;2022-08-21T05:04:15;11.50;99.90
13848;DHT22;6994;49.752;6.094;2022-08-21T05:06:43;11.50;99.90
13848;DHT22;6994;49.752;6.094;2022-08-21T05:09:12;11.50;99.90
13848;DHT22;6994;49.752;6.094;2022-08-21T05:11:38;11.50;99.90
13848;DHT22;6994;49.752;6.094;2022-08-21T05:14:05;11.50;99.90
13848;DHT22;6994;49.752;6.094;2022-08-21T05:16:32;11.50;99.90
13848;DHT22;6994;49.752;6.094;2022-08-21T05:18:59;11.70;99.90
13848;DHT22;6994;49.752;6.094;2022-08-21T05:21:27;11.80;99.90
13848;DHT22;6994;49.752;6.094;2022-08-21T05:23:54;11.90;99.90
13848;DHT22;6994;49.752;6.094;2022-08-21T05:26:21;11.90;99.90
13848;DHT22;6994;49.752;6.094;2022-08-21T05:28:48;12.10;99.90
13848;DHT22;6994;49.752;6.094;2022-08-21T05:31:15;12.10;99.90
13848;DHT22;6994;49.752;6.094;2022-08-21T05:33:43;12.10;99.90
13848;DHT22;6994;49.752;6.094;2022-08-21T05:36:10;12.10;99.90
13848;DHT22;6994;49.752;6.094;2022-08-21T05:38:38;12.10;99.90
13848;DHT22;6994;49.752;6.094;2022-08-21T05:41:06;12.20;99.90
13848;DHT22;6994;49.752;6.094;2022-08-21T05:43:34;12.20;99.90
13848;DHT22;6994;49.752;6.094;2022-08-21T05:46:02;12.20;99.90
13848;DHT22;6994;49.752;6.094;2022-08-21T05:48:30;12.30;99.90
13848;DHT22;6994;49.752;6.094;2022-08-21T05:50:58;12.30;99.90
13848;DHT22;6994;49.752;6.094;2022-08-21T05:53:25;12.30;99.90
13848;DHT22;6994;49.752;6.094;2022-08-21T05:55:52;12.50;99.90
13848;DHT22;6994;49.752;6.094;2022-08-21T05:58:20;12.70;99.90
13848;DHT22;6994;49.752;6.094;2022-08-21T06:00:48;12.70;99.90
13848;DHT22;6994;49.752;6.094;2022-08-21T06:03:18;12.70;99.90
13848;DHT22;6994;49.752;6.094;2022-08-21T06:05:44;12.70;99.90
13848;DHT22;6994;49.752;6.094;2022-08-21T06:08:11;12.80;99.90
13848;DHT22;6994;49.752;6.094;2022-08-21T06:10:38;12.80;99.90
13848;DHT22;6994;49.752;6.094;2022-08-21T06:13:05;12.80;99.90
13848;DHT22;6994;49.752;6.094;2022-08-21T06:15:32;12.90;99.90
13848;DHT22;6994;49.752;6.094;2022-08-21T06:18:00;13.20;99.90
13848;DHT22;6994;49.752;6.094;2022-08-21T06:20:27;13.30;99.90
13848;DHT22;6994;49.752;6.094;2022-08-21T06:22:54;13.40;99.90
13848;DHT22;6994;49.752;6.094;2022-08-21T06:25:21;13.50;99.90
13848;DHT22;6994;49.752;6.094;2022-08-21T06:27:49;13.60;99.90
13848;DHT22;6994;49.752;6.094;2022-08-21T06:30:17;13.60;99.90
13848;DHT22;6994;49.752;6.094;2022-08-21T06:32:44;13.60;99.90
13848;DHT22;6994;49.752;6.094;2022-08-21T06:35:12;13.80;99.90
13848;DHT22;6994;49.752;6.094;2022-08-21T06:37:39;13.70;99.90
13848;DHT22;6994;49.752;6.094;2022-08-21T06:40:06;13.90;99.90
13848;DHT22;6994;49.752;6.094;2022-08-21T06:42:33;13.90;99.90
13848;DHT22;6994;49.752;6.094;2022-08-21T06:45:01;14.00;99.90
13848;DHT22;6994;49.752;6.094;2022-08-21T06:47:28;14.10;99.90
13848;DHT22;6994;49.752;6.094;2022-08-21T06:49:55;14.20;99.90
13848;DHT22;6994;49.752;6.094;2022-08-21T06:52:22;14.30;99.90
13848;DHT22;6994;49.752;6.094;2022-08-21T06:54:49;14.40;99.90
13848;DHT22;6994;49.752;6.094;2022-08-21T06:57:17;14.50;99.90
13848;DHT22;6994;49.752;6.094;2022-08-21T06:59:45;14.90;99.90
13848;DHT22;6994;49.752;6.094;2022-08-21T07:02:13;15.00;99.90
13848;DHT22;6994;49.752;6.094;2022-08-21T07:04:41;15.00;99.90
13848;DHT22;6994;49.752;6.094;2022-08-21T07:07:09;15.10;99.90
13848;DHT22;6994;49.752;6.094;2022-08-21T07:09:37;15.10;99.90
13848;DHT22;6994;49.752;6.094;2022-08-21T07:12:05;15.20;99.90
13848;DHT22;6994;49.752;6.094;2022-08-21T07:14:32;15.30;99.90
13848;DHT22;6994;49.752;6.094;2022-08-21T07:17:00;15.40;99.90
13848;DHT22;6994;49.752;6.094;2022-08-21T07:19:28;15.40;99.90
13848;DHT22;6994;49.752;6.094;2022-08-21T07:21:56;15.50;99.90
13848;DHT22;6994;49.752;6.094;2022-08-21T07:24:22;15.70;99.90
13848;DHT22;6994;49.752;6.094;2022-08-21T07:26:49;15.80;99.90
13848;DHT22;6994;49.752;6.094;2022-08-21T07:29:16;16.00;99.90
13848;DHT22;6994;49.752;6.094;2022-08-21T07:31:44;16.10;99.90
13848;DHT22;6994;49.752;6.094;2022-08-21T07:34:11;16.30;99.90
13848;DHT22;6994;49.752;6.094;2022-08-21T07:36:38;16.50;99.90
13848;DHT22;6994;49.752;6.094;2022-08-21T07:39:05;16.60;99.90
13848;DHT22;6994;49.752;6.094;2022-08-21T07:41:33;17.00;99.90
13848;DHT22;6994;49.752;6.094;2022-08-21T07:44:00;17.00;99.90
13848;DHT22;6994;49.752;6.094;2022-08-21T07:46:28;17.20;99.90
13848;DHT22;6994;49.752;6.094;2022-08-21T07:48:55;17.40;99.90
13848;DHT22;6994;49.752;6.094;2022-08-21T07:51:24;17.60;99.90
13848;DHT22;6994;49.752;6.094;2022-08-21T07:53:53;17.80;99.90
13848;DHT22;6994;49.752;6.094;2022-08-21T07:56:19;18.00;99.90
13848;DHT22;6994;49.752;6.094;2022-08-21T07:58:47;18.20;99.90
13848;DHT22;6994;49.752;6.094;2022-08-21T08:01:14;18.40;99.90
13848;DHT22;6994;49.752;6.094;2022-08-21T08:03:41;18.60;99.90
13848;DHT22;6994;49.752;6.094;2022-08-21T08:06:08;19.00;99.90
13848;DHT22;6994;49.752;6.094;2022-08-21T08:08:35;19.20;99.90
13848;DHT22;6994;49.752;6.094;2022-08-21T08:11:03;19.40;99.90
13848;DHT22;6994;49.752;6.094;2022-08-21T08:13:30;19.50;99.90
13848;DHT22;6994;49.752;6.094;2022-08-21T08:15:58;20.00;99.90
13848;DHT22;6994;49.752;6.094;2022-08-21T08:18:26;20.10;99.90
13848;DHT22;6994;49.752;6.094;2022-08-21T08:20:53;20.10;99.90
13848;DHT22;6994;49.752;6.094;2022-08-21T08:23:20;20.20;99.90
13848;DHT22;6994;49.752;6.094;2022-08-21T08:25:47;20.30;99.90
13848;DHT22;6994;49.752;6.094;2022-08-21T08:28:15;20.40;99.90
13848;DHT22;6994;49.752;6.094;2022-08-21T08:30:42;20.50;99.90
13848;DHT22;6994;49.752;6.094;2022-08-21T08:33:09;20.60;99.90
13848;DHT22;6994;49.752;6.094;2022-08-21T08:35:36;20.70;99.90
13848;DHT22;6994;49.752;6.094;2022-08-21T08:38:03;21.00;99.90
13848;DHT22;6994;49.752;6.094;2022-08-21T08:43:29;21.30;99.90
13848;DHT22;6994;49.752;6.094;2022-08-21T08:45:56;21.40;99.90
13848;DHT22;6994;49.752;6.094;2022-08-21T08:48:49;21.40;99.90
13848;DHT22;6994;49.752;6.094;2022-08-21T08:51:36;21.50;99.90
13848;DHT22;6994;49.752;6.094;2022-08-21T08:54:00;21.60;99.90
13848;DHT22;6994;49.752;6.094;2022-08-21T08:56:28;21.70;99.90
13848;DHT22;6994;49.752;6.094;2022-08-21T08:58:54;21.90;99.90
13848;DHT22;6994;49.752;6.094;2022-08-21T09:01:21;22.00;99.90
13848;DHT22;6994;49.752;6.094;2022-08-21T09:03:48;22.10;99.90
13848;DHT22;6994;49.752;6.094;2022-08-21T09:09:02;22.40;99.90
13848;DHT22;6994;49.752;6.094;2022-08-21T09:11:34;22.60;99.90
13848;DHT22;6994;49.752;6.094;2022-08-21T09:14:17;22.60;99.90
13848;DHT22;6994;49.752;6.094;2022-08-21T09:24:31;23.30;97.90
13848;DHT22;6994;49.752;6.094;2022-08-21T09:29:30;23.50;98.20
13848;DHT22;6994;49.752;6.094;2022-08-21T09:31:57;23.70;96.80
13848;DHT22;6994;49.752;6.094;2022-08-21T09:34:29;24.00;95.90
13848;DHT22;6994;49.752;6.094;2022-08-21T09:36:56;24.40;92.40
13848;DHT22;6994;49.752;6.094;2022-08-21T09:39:27;24.40;92.40
13848;DHT22;6994;49.752;6.094;2022-08-21T09:42:01;24.50;92.10
13848;DHT22;6994;49.752;6.094;2022-08-21T09:44:28;24.50;92.30
13848;DHT22;6994;49.752;6.094;2022-08-21T09:46:54;24.80;91.00
13848;DHT22;6994;49.752;6.094;2022-08-21T09:49:31;24.70;91.10
13848;DHT22;6994;49.752;6.094;2022-08-21T09:51:57;24.60;91.30
13848;DHT22;6994;49.752;6.094;2022-08-21T09:54:31;24.60;91.30
13848;DHT22;6994;49.752;6.094;2022-08-21T09:56:58;24.60;92.20
13848;DHT22;6994;49.752;6.094;2022-08-21T09:59:42;24.70;91.10
13848;DHT22;6994;49.752;6.094;2022-08-21T10:02:28;24.80;90.90
13848;DHT22;6994;49.752;6.094;2022-08-21T10:05:01;24.80;91.10
13848;DHT22;6994;49.752;6.094;2022-08-21T10:07:26;25.60;89.10
13848;DHT22;6994;49.752;6.094;2022-08-21T10:10:07;25.70;88.50
13848;DHT22;6994;49.752;6.094;2022-08-21T10:12:38;25.70;88.40
13848;DHT22;6994;49.752;6.094;2022-08-21T10:17:50;25.90;83.60
13848;DHT22;6994;49.752;6.094;2022-08-21T10:21:01;25.90;83.60
13848;DHT22;6994;49.752;6.094;2022-08-21T10:25:41;26.10;83.20
13848;DHT22;6994;49.752;6.094;2022-08-21T10:30:38;26.10;81.70
13848;DHT22;6994;49.752;6.094;2022-08-21T10:33:16;26.30;79.80
13848;DHT22;6994;49.752;6.094;2022-08-21T10:35:42;26.20;81.00
13848;DHT22;6994;49.752;6.094;2022-08-21T10:38:33;26.30;81.10
13848;DHT22;6994;49.752;6.094;2022-08-21T10:41:19;26.20;81.00
13848;DHT22;6994;49.752;6.094;2022-08-21T10:43:51;26.30;81.40
13848;DHT22;6994;49.752;6.094;2022-08-21T10:49:21;26.70;79.10
13848;DHT22;6994;49.752;6.094;2022-08-21T10:54:38;26.60;79.60
13848;DHT22;6994;49.752;6.094;2022-08-21T10:57:05;26.80;78.80
13848;DHT22;6994;49.752;6.094;2022-08-21T10:59:42;26.70;78.40
13848;DHT22;6994;49.752;6.094;2022-08-21T11:01:59;26.90;77.70
13848;DHT22;6994;49.752;6.094;2022-08-21T11:04:32;26.90;78.30
13848;DHT22;6994;49.752;6.094;2022-08-21T11:07:02;27.00;79.40
13848;DHT22;6994;49.752;6.094;2022-08-21T11:09:27;27.00;78.80
13848;DHT22;6994;49.752;6.094;2022-08-21T11:12:05;27.10;77.70
13848;DHT22;6994;49.752;6.094;2022-08-21T11:14:39;27.40;78.20
13848;DHT22;6994;49.752;6.094;2022-08-21T11:17:06;27.60;76.60
13848;DHT22;6994;49.752;6.094;2022-08-21T11:19:42;27.70;78.30
13848;DHT22;6994;49.752;6.094;2022-08-21T11:22:13;27.80;77.50
13848;DHT22;6994;49.752;6.094;2022-08-21T11:24:48;27.80;77.40
13848;DHT22;6994;49.752;6.094;2022-08-21T11:27:30;28.00;77.30
13848;DHT22;6994;49.752;6.094;2022-08-21T11:29:57;28.10;77.40
13848;DHT22;6994;49.752;6.094;2022-08-21T11:32:31;29.30;76.50
13848;DHT22;6994;49.752;6.094;2022-08-21T11:51:10;33.70;57.70
13848;DHT22;6994;49.752;6.094;2022-08-21T11:53:42;34.00;55.40
13848;DHT22;6994;49.752;6.094;2022-08-21T11:56:35;34.10;55.40
13848;DHT22;6994;49.752;6.094;2022-08-21T11:58:41;34.30;54.60
13848;DHT22;6994;49.752;6.094;2022-08-21T12:01:15;35.40;53.40
13848;DHT22;6994;49.752;6.094;2022-08-21T12:03:40;35.60;52.00
13848;DHT22;6994;49.752;6.094;2022-08-21T12:06:08;35.60;52.90
13848;DHT22;6994;49.752;6.094;2022-08-21T12:11:05;35.40;49.90
13848;DHT22;6994;49.752;6.094;2022-08-21T12:13:33;34.70;50.60
13848;DHT22;6994;49.752;6.094;2022-08-21T12:16:12;34.90;51.20
13848;DHT22;6994;49.752;6.094;2022-08-21T12:18:37;34.60;51.80
13848;DHT22;6994;49.752;6.094;2022-08-21T12:21:16;34.70;52.10
13848;DHT22;6994;49.752;6.094;2022-08-21T12:23:33;35.00;50.90
13848;DHT22;6994;49.752;6.094;2022-08-21T12:26:00;35.10;49.80
13848;DHT22;6994;49.752;6.094;2022-08-21T12:28:29;34.70;49.40
13848;DHT22;6994;49.752;6.094;2022-08-21T12:30:57;33.50;51.00
13848;DHT22;6994;49.752;6.094;2022-08-21T12:36:01;33.50;52.30
13848;DHT22;6994;49.752;6.094;2022-08-21T12:38:32;33.80;52.10
13848;DHT22;6994;49.752;6.094;2022-08-21T12:41:07;34.30;51.10
13848;DHT22;6994;49.752;6.094;2022-08-21T12:43:34;34.90;50.90
13848;DHT22;6994;49.752;6.094;2022-08-21T12:46:00;35.50;48.50
13848;DHT22;6994;49.752;6.094;2022-08-21T12:49:43;35.80;48.90
13848;DHT22;6994;49.752;6.094;2022-08-21T12:51:24;36.30;47.40
13848;DHT22;6994;49.752;6.094;2022-08-21T12:53:53;36.80;47.60
13848;DHT22;6994;49.752;6.094;2022-08-21T12:56:24;37.50;44.90
13848;DHT22;6994;49.752;6.094;2022-08-21T12:58:59;37.50;44.90
13848;DHT22;6994;49.752;6.094;2022-08-21T13:03:52;37.70;44.20
13848;DHT22;6994;49.752;6.094;2022-08-21T13:06:19;38.00;43.50
13848;DHT22;6994;49.752;6.094;2022-08-21T13:08:47;38.40;43.20
13848;DHT22;6994;49.752;6.094;2022-08-21T13:11:15;38.60;42.90
13848;DHT22;6994;49.752;6.094;2022-08-21T13:13:42;38.60;42.90
13848;DHT22;6994;49.752;6.094;2022-08-21T13:16:09;38.40;41.80
13848;DHT22;6994;49.752;6.094;2022-08-21T13:18:39;37.60;42.80
13848;DHT22;6994;49.752;6.094;2022-08-21T13:21:07;37.30;43.40
13848;DHT22;6994;49.752;6.094;2022-08-21T13:23:33;37.10;43.00
13848;DHT22;6994;49.752;6.094;2022-08-21T13:26:01;36.50;43.30
13848;DHT22;6994;49.752;6.094;2022-08-21T13:28:34;35.80;43.80
13848;DHT22;6994;49.752;6.094;2022-08-21T13:31:01;35.10;44.20
13848;DHT22;6994;49.752;6.094;2022-08-21T13:33:29;34.70;44.50
13848;DHT22;6994;49.752;6.094;2022-08-21T13:38:24;34.80;45.10
13848;DHT22;6994;49.752;6.094;2022-08-21T13:40:58;35.20;45.60
13848;DHT22;6994;49.752;6.094;2022-08-21T13:43:21;35.70;45.10
13848;DHT22;6994;49.752;6.094;2022-08-21T13:45:49;36.20;44.60
13848;DHT22;6994;49.752;6.094;2022-08-21T13:48:14;36.50;44.40
13848;DHT22;6994;49.752;6.094;2022-08-21T13:50:41;36.70;43.70
13848;DHT22;6994;49.752;6.094;2022-08-21T13:55:40;36.00;43.00
13848;DHT22;6994;49.752;6.094;2022-08-21T13:58:06;36.10;43.90
13848;DHT22;6994;49.752;6.094;2022-08-21T14:00:34;36.50;42.70
13848;DHT22;6994;49.752;6.094;2022-08-21T14:03:05;36.90;42.50
13848;DHT22;6994;49.752;6.094;2022-08-21T14:05:31;37.40;41.30
13848;DHT22;6994;49.752;6.094;2022-08-21T14:08:08;37.40;40.40
13848;DHT22;6994;49.752;6.094;2022-08-21T14:10:48;37.00;40.10
13848;DHT22;6994;49.752;6.094;2022-08-21T14:13:05;36.30;40.90
13848;DHT22;6994;49.752;6.094;2022-08-21T14:15:34;35.60;41.90
13848;DHT22;6994;49.752;6.094;2022-08-21T14:18:13;35.00;42.70
13848;DHT22;6994;49.752;6.094;2022-08-21T14:20:34;35.00;42.70
13848;DHT22;6994;49.752;6.094;2022-08-21T14:23:02;34.50;43.50
13848;DHT22;6994;49.752;6.094;2022-08-21T14:25:39;34.00;44.00
13848;DHT22;6994;49.752;6.094;2022-08-21T14:28:14;33.50;44.20
13848;DHT22;6994;49.752;6.094;2022-08-21T14:30:39;32.90;44.80
13848;DHT22;6994;49.752;6.094;2022-08-21T14:33:08;32.80;45.10
13848;DHT22;6994;49.752;6.094;2022-08-21T14:35:32;32.30;45.70
13848;DHT22;6994;49.752;6.094;2022-08-21T14:38:00;32.30;46.00
13848;DHT22;6994;49.752;6.094;2022-08-21T14:40:27;32.00;46.70
13848;DHT22;6994;49.752;6.094;2022-08-21T14:42:55;31.70;47.60
13848;DHT22;6994;49.752;6.094;2022-08-21T14:45:25;31.40;47.90
13848;DHT22;6994;49.752;6.094;2022-08-21T14:47:51;31.10;47.80
13848;DHT22;6994;49.752;6.094;2022-08-21T14:50:19;30.90;48.50
13848;DHT22;6994;49.752;6.094;2022-08-21T14:52:46;30.90;48.50
13848;DHT22;6994;49.752;6.094;2022-08-21T14:55:14;30.70;49.00
13848;DHT22;6994;49.752;6.094;2022-08-21T14:57:44;30.40;49.10
13848;DHT22;6994;49.752;6.094;2022-08-21T15:00:11;30.20;49.60
13848;DHT22;6994;49.752;6.094;2022-08-21T15:02:37;30.00;49.70
13848;DHT22;6994;49.752;6.094;2022-08-21T15:05:05;29.90;49.80
13848;DHT22;6994;49.752;6.094;2022-08-21T15:07:33;29.80;49.70
13848;DHT22;6994;49.752;6.094;2022-08-21T15:10:00;29.70;50.60
13848;DHT22;6994;49.752;6.094;2022-08-21T15:12:28;29.60;50.80
13848;DHT22;6994;49.752;6.094;2022-08-21T15:14:56;29.50;50.70
13848;DHT22;6994;49.752;6.094;2022-08-21T15:17:23;29.40;51.70
13848;DHT22;6994;49.752;6.094;2022-08-21T15:19:50;29.20;51.70
13848;DHT22;6994;49.752;6.094;2022-08-21T15:22:17;29.30;51.30
13848;DHT22;6994;49.752;6.094;2022-08-21T15:24:44;29.10;51.40
13848;DHT22;6994;49.752;6.094;2022-08-21T15:27:12;28.90;51.40
13848;DHT22;6994;49.752;6.094;2022-08-21T15:29:39;28.80;51.80
13848;DHT22;6994;49.752;6.094;2022-08-21T15:32:16;28.60;52.00
13848;DHT22;6994;49.752;6.094;2022-08-21T15:34:43;28.50;52.30
13848;DHT22;6994;49.752;6.094;2022-08-21T15:37:10;28.50;52.70
13848;DHT22;6994;49.752;6.094;2022-08-21T15:39:38;28.30;53.60
13848;DHT22;6994;49.752;6.094;2022-08-21T15:42:06;28.30;54.00
13848;DHT22;6994;49.752;6.094;2022-08-21T15:44:33;28.30;54.00
13848;DHT22;6994;49.752;6.094;2022-08-21T15:47:00;28.30;54.00
13848;DHT22;6994;49.752;6.094;2022-08-21T15:49:27;28.20;54.30
13848;DHT22;6994;49.752;6.094;2022-08-21T15:51:55;28.40;54.80
13848;DHT22;6994;49.752;6.094;2022-08-21T15:54:22;28.40;54.60
13848;DHT22;6994;49.752;6.094;2022-08-21T15:56:49;28.40;54.50
13848;DHT22;6994;49.752;6.094;2022-08-21T15:59:20;28.30;54.40
13848;DHT22;6994;49.752;6.094;2022-08-21T16:01:46;28.60;53.90
13848;DHT22;6994;49.752;6.094;2022-08-21T16:04:23;28.60;54.10
13848;DHT22;6994;49.752;6.094;2022-08-21T16:06:49;28.70;54.10
13848;DHT22;6994;49.752;6.094;2022-08-21T16:09:16;28.90;54.40
13848;DHT22;6994;49.752;6.094;2022-08-21T16:11:44;29.10;53.80
13848;DHT22;6994;49.752;6.094;2022-08-21T16:14:14;29.60;53.00
13848;DHT22;6994;49.752;6.094;2022-08-21T16:16:41;29.80;53.10
13848;DHT22;6994;49.752;6.094;2022-08-21T16:19:07;30.00;53.00
13848;DHT22;6994;49.752;6.094;2022-08-21T16:21:35;30.00;52.90
13848;DHT22;6994;49.752;6.094;2022-08-21T16:24:02;29.90;52.50
13848;DHT22;6994;49.752;6.094;2022-08-21T16:26:29;29.90;53.10
13848;DHT22;6994;49.752;6.094;2022-08-21T16:28:57;29.60;53.00
13848;DHT22;6994;49.752;6.094;2022-08-21T16:31:23;29.30;53.40
13848;DHT22;6994;49.752;6.094;2022-08-21T16:33:52;29.00;54.20
13848;DHT22;6994;49.752;6.094;2022-08-21T16:36:18;28.70;54.80
13848;DHT22;6994;49.752;6.094;2022-08-21T16:38:45;28.40;55.30
13848;DHT22;6994;49.752;6.094;2022-08-21T16:41:14;28.20;55.70
13848;DHT22;6994;49.752;6.094;2022-08-21T16:43:40;28.00;56.00
13848;DHT22;6994;49.752;6.094;2022-08-21T16:46:07;27.80;56.60
13848;DHT22;6994;49.752;6.094;2022-08-21T16:48:34;27.70;57.10
13848;DHT22;6994;49.752;6.094;2022-08-21T16:51:01;27.60;57.40